Tropical Cyclones
[Index]
Main Index Home Page Stock Weather Photos Extreme Storms Discussion Storm News and Storm Chasing Reports Tropical Cyclones / Hurricanes / Typhoons Weather Data and Links Wild Fires / Bushfires Weather Observation Techniques Weather Picture Catalogue Tornado Pictures and Reports Stock Video Footage and DVDs for sale
Season 1992-1993 Tropical Cyclone OLIVER Track Map
Season 1992-1993 Summaries: [BoM-AU] [JTWC-AU] [JTWC-SIO] [JTWC-SPAC] [JTWC-SH]
<<- Previous TC | BoM 1992-1993 Season | Next TC ->>

click for intensity scale information  Lat/long Grid: Show Hide

 Date Labels: Show Hide

Bureau of Meteorology Tropical Cyclone Data

Name: OLIVER
Number: 756 / 199293_04

05 Feb 1993 00:00 UTC to 12 Feb 1993 18:00 UTC

    date/time    lat    long    hPa   cat  kts
1993-02-05 00   14.6   150.0    995    1    41          
1993-02-05 06   14.8   150.2    990    1    41          
1993-02-05 12   15.1   150.5    985    2    45          
1993-02-05 18   15.3   150.8    975    2    51          
1993-02-06 00   15.6   151.2    970    3    64          
1993-02-06 06   15.8   151.5    965    3    70          
1993-02-06 12   16.0   151.8    965    3    70          
1993-02-06 18   16.2   152.1    960    3    70          
1993-02-06 20   16.3   152.3    960    3    80          
1993-02-07 00   16.5   152.2    955    4    80          
1993-02-07 06   16.8   152.1    950    4    89          
1993-02-07 12   17.1   152.0    950    4    89          
1993-02-07 18   17.4   151.9    950    4    89          
1993-02-08 00   17.8   151.9    950    4    89          
1993-02-08 06   18.1   151.9    950    4    89          
1993-02-08 12   18.4   151.9    955    4    89          
1993-02-08 18   18.7   152.0    960    3    89          
1993-02-09 00   19.1   152.2    960    3    80          
1993-02-09 06   19.4   152.6    960    3    76          
1993-02-09 12   19.6   153.2    965    3    70          
1993-02-09 18   19.7   153.6    970    3    64          
1993-02-10 00   19.8   154.0    970    3    64          
1993-02-10 06   20.0   154.4    975    2    60          
1993-02-10 12   20.2   154.8    980    2    54          
1993-02-10 18   20.4   155.0    985    2    51          
1993-02-11 00   20.6   155.3    985    2    51          
1993-02-11 06   20.9   155.6    985    2    51          
1993-02-11 12   21.2   155.9    990    1    51          
1993-02-11 18   21.6   155.9    995    1    45          
1993-02-12 00   22.0   155.6                41          
1993-02-12 06   22.3   155.0                33          
1993-02-12 12   22.3   154.4                33          
1993-02-12 18   22.0   154.0                33          
Winds are 10-min average.

Tropical cyclone tracks developed by Michael Bath using data from the Bureau of Meteorology and Google Maps.


[Australian Severe Weather index] [Copyright Notice] [Email Contacts] [Search This Site] [Privacy Policy]
Document: tropical_cyclone_oliver.htm Updated: 30 May 2013